Time;durP1;ratioP1;P1;durP2;ratioP2;P2;SDS_P1;SDS_P2;PMS_P1;PMS_P2;Temp;Humidity;BMP_temperature;BMP_pressure;BME280_temperature;BME280_humidity;BME280_pressure;Samples;Min_cycle;Max_cycle;Signal;HPM_P1;HPM_P2
2022/03/22 00:01:43;;;;;;;;;;;;;;;;;;5018343;28;19956;-50
2022/03/22 00:04:10;;;;;;;;;;;;;;;;;;5018413;28;19910;-48
2022/03/22 00:06:35;;;;;;;;;;;;;;;;;;5017810;28;19914;-49
2022/03/22 00:09:00;;;;;;;;;;;;;;;;;;5018035;28;19910;-48
2022/03/22 00:11:25;;;;;;;;;;;;;;;;;;5017739;28;20056;-48
2022/03/22 00:13:51;;;;;;;;;;;;;;;;;;5017738;28;19945;-50
2022/03/22 00:16:16;;;;;;;;;;;;;;;;;;5017159;28;19920;-51
2022/03/22 00:18:41;;;;;;;;;;;;;;;;;;5017522;28;19916;-50
2022/03/22 00:21:06;;;;;;;;;;;;;;;;;;5017191;28;19914;-48
2022/03/22 00:23:31;;;;;;;;;;;;;;;;;;5017529;28;19910;-49
2022/03/22 00:25:56;;;;;;;;;;;;;;;;;;5016264;28;19913;-48
2022/03/22 00:28:22;;;;;;;;;;;;;;;;;;5017113;28;19992;-51
2022/03/22 00:30:47;;;;;;;;;;;;;;;;;;5017345;28;19993;-49
2022/03/22 00:33:12;;;;;;;;;;;;;;;;;;5016080;28;19917;-49
2022/03/22 00:35:37;;;;;;;;;;;;;;;;;;5016812;28;22150;-49
2022/03/22 00:38:02;;;;;;;;;;;;;;;;;;5017132;28;19921;-49
2022/03/22 00:40:28;;;;;;;;;;;;;;;;;;5017163;28;19971;-49
2022/03/22 00:42:53;;;;;;;;;;;;;;;;;;5017099;28;19988;-48
2022/03/22 00:45:18;;;;;;;;;;;;;;;;;;5017089;28;19909;-49
2022/03/22 00:47:43;;;;;;;;;;;;;;;;;;5016543;28;19983;-49
2022/03/22 00:50:09;;;;;;;;;;;;;;;;;;5026601;23;19925;-48
2022/03/22 00:52:35;;;;;;;;;;;;;;;;;;5036810;28;20008;-48
2022/03/22 00:55:01;;;;;;;;;;;;;;;;;;5036805;28;19909;-50
2022/03/22 00:57:26;;;;;;;;;;;;;;;;;;5035972;28;19928;-50
2022/03/22 01:00:04;;;;;;;;;;;;;;;;;;5036698;28;19919;-51
2022/03/22 01:02:29;;;;;;;;;;;;;;;;;;5036545;28;20283;-48
2022/03/22 01:04:56;;;;;;;;;;;;;;;;;;5036613;28;19995;-51
2022/03/22 01:07:21;;;;;;;;;;;;;;;;;;5035880;28;19956;-48
2022/03/22 01:09:46;;;;;;;;;;;;;;;;;;5036499;28;20376;-48
2022/03/22 01:12:11;;;;;;;;;;;;;;;;;;5036496;28;19909;-50
2022/03/22 01:14:38;;;;;;;;;;;;;;;;;;5036379;28;19928;-47
2022/03/22 01:17:03;;;;;;;;;;;;;;;;;;5035575;28;20261;-51
2022/03/22 01:19:28;;;;;;;;;;;;;;;;;;5036237;28;19920;-50
2022/03/22 01:21:55;;;;;;;;;;;;;;;;;;5035913;28;19909;-49
2022/03/22 01:24:20;;;;;;;;;;;;;;;;;;5035782;28;19995;-48
2022/03/22 01:26:45;;;;;;;;;;;;;;;;;;5035443;28;19948;-51
2022/03/22 01:29:11;;;;;;;;;;;;;;;;;;5036076;28;19913;-51
2022/03/22 01:31:36;;;;;;;;;;;;;;;;;;5036062;28;19909;-48
2022/03/22 01:34:02;;;;;;;;;;;;;;;;;;5035994;28;20237;-51
2022/03/22 01:36:30;;;;;;;;;;;;;;;;;;5035008;28;19932;-49
2022/03/22 01:38:55;;;;;;;;;;;;;;;;;;5036300;28;19920;-48
2022/03/22 01:41:20;;;;;;;;;;;;;;;;;;5035832;28;19909;-49
2022/03/22 01:43:45;;;;;;;;;;;;;;;;;;5035526;28;19909;-48
2022/03/22 01:46:10;;;;;;;;;;;;;;;;;;5035250;28;19909;-48
2022/03/22 01:48:35;;;;;;;;;;;;;;;;;;5035878;28;19935;-50
2022/03/22 01:51:00;;;;;;;;;;;;;;;;;;5035342;28;19921;-48
2022/03/22 01:53:25;;;;;;;;;;;;;;;;;;5035550;28;19967;-49
2022/03/22 01:55:50;;;;;;;;;;;;;;;;;;5035260;28;21443;-48
2022/03/22 01:58:16;;;;;;;;;;;;;;;;;;5035523;28;19913;-51
2022/03/22 02:00:41;;;;;;;;;;;;;;;;;;5035469;28;20350;-50
2022/03/22 02:05:56;;;;;;;;;;;;;;;;;;5035198;28;19967;-50
2022/03/22 02:08:21;;;;;;;;;;;;;;;;;;5035330;28;20331;-49
2022/03/22 02:10:47;;;;;;;;;;;;;;;;;;5035460;28;19909;-48
2022/03/22 02:13:12;;;;;;;;;;;;;;;;;;5035187;28;19918;-49
2022/03/22 02:15:37;;;;;;;;;;;;;;;;;;5035125;28;19916;-49
2022/03/22 02:18:02;;;;;;;;;;;;;;;;;;5034898;28;19920;-48
2022/03/22 02:20:27;;;;;;;;;;;;;;;;;;5035365;28;19953;-48
2022/03/22 02:22:52;;;;;;;;;;;;;;;;;;5035334;28;20384;-49
2022/03/22 02:25:18;;;;;;;;;;;;;;;;;;5034216;28;19987;-49
2022/03/22 02:27:46;;;;;;;;;;;;;;;;;;5035199;28;19919;-49
2022/03/22 02:30:11;;;;;;;;;;;;;;;;;;5035157;28;19910;-49
2022/03/22 02:32:36;;;;;;;;;;;;;;;;;;5034970;28;19916;-50
2022/03/22 02:35:01;;;;;;;;;;;;;;;;;;5034976;28;19916;-48
2022/03/22 02:37:26;;;;;;;;;;;;;;;;;;5034284;28;20257;-48
2022/03/22 02:39:51;;;;;;;;;;;;;;;;;;5034805;28;19909;-51
2022/03/22 02:42:16;;;;;;;;;;;;;;;;;;5035010;28;19916;-48
2022/03/22 02:44:41;;;;;;;;;;;;;;;;;;5033571;28;19909;-49
2022/03/22 02:47:07;;;;;;;;;;;;;;;;;;5034284;28;20375;-51
2022/03/22 02:49:34;;;;;;;;;;;;;;;;;;5033494;28;19909;-50
2022/03/22 02:51:59;;;;;;;;;;;;;;;;;;5034526;28;19928;-51
2022/03/22 02:54:24;;;;;;;;;;;;;;;;;;5034864;28;19909;-48
2022/03/22 02:56:49;;;;;;;;;;;;;;;;;;5032175;28;20276;-51
2022/03/22 02:59:14;;;;;;;;;;;;;;;;;;5034605;28;19931;-50
2022/03/22 03:01:39;;;;;;;;;;;;;;;;;;5034746;28;19909;-50
2022/03/22 03:04:05;;;;;;;;;;;;;;;;;;5034844;28;19959;-48
2022/03/22 03:06:30;;;;;;;;;;;;;;;;;;5033876;28;19920;-49
2022/03/22 03:08:55;;;;;;;;;;;;;;;;;;5034636;28;19920;-51
2022/03/22 03:11:21;;;;;;;;;;;;;;;;;;5034790;28;19955;-48
2022/03/22 03:16:30;;;;;;;;;;;;;;;;;;5033981;28;19920;-48
2022/03/22 03:18:55;;;;;;;;;;;;;;;;;;5034704;28;19913;-49
2022/03/22 03:21:20;;;;;;;;;;;;;;;;;;5034644;28;20008;-48
2022/03/22 03:23:45;;;;;;;;;;;;;;;;;;5034581;28;19910;-48
2022/03/22 03:26:10;;;;;;;;;;;;;;;;;;5033726;28;19996;-51
2022/03/22 03:28:36;;;;;;;;;;;;;;;;;;5034665;28;20320;-48
2022/03/22 03:31:01;;;;;;;;;;;;;;;;;;5034560;28;19909;-50
2022/03/22 03:33:26;;;;;;;;;;;;;;;;;;5034662;28;19909;-49
2022/03/22 03:35:51;;;;;;;;;;;;;;;;;;5033875;28;19983;-55
2022/03/22 03:38:16;;;;;;;;;;;;;;;;;;5034153;28;19971;-49
2022/03/22 03:43:25;;;;;;;;;;;;;;;;;;5034438;28;19916;-51
2022/03/22 03:48:34;;;;;;;;;;;;;;;;;;5034562;28;20336;-50
2022/03/22 03:50:59;;;;;;;;;;;;;;;;;;5034245;28;19921;-48
2022/03/22 03:53:24;;;;;;;;;;;;;;;;;;5034604;28;19909;-48
2022/03/22 03:55:50;;;;;;;;;;;;;;;;;;5033674;28;19913;-48
2022/03/22 03:58:15;;;;;;;;;;;;;;;;;;5033901;28;19992;-49
2022/03/22 04:00:40;;;;;;;;;;;;;;;;;;5034066;28;20296;-49
2022/03/22 04:03:05;;;;;;;;;;;;;;;;;;5034300;28;20937;-50
2022/03/22 04:05:30;;;;;;;;;;;;;;;;;;5033870;28;19915;-49
2022/03/22 04:07:55;;;;;;;;;;;;;;;;;;5036122;28;20062;-48
2022/03/22 04:10:20;;;;;;;;;;;;;;;;;;5037640;28;19996;-48
2022/03/22 04:12:45;;;;;;;;;;;;;;;;;;5037565;28;20420;-49
2022/03/22 04:15:10;;;;;;;;;;;;;;;;;;5037523;28;20304;-49
2022/03/22 04:17:36;;;;;;;;;;;;;;;;;;5037487;28;20376;-51
2022/03/22 04:20:01;;;;;;;;;;;;;;;;;;5037514;28;19909;-49
2022/03/22 04:22:27;;;;;;;;;;;;;;;;;;5037536;28;19913;-50
2022/03/22 04:24:52;;;;;;;;;;;;;;;;;;5037237;28;19921;-49
2022/03/22 04:32:44;;;;;;;;;;;;;;;;;;5037500;28;19920;-50
2022/03/22 04:35:10;;;;;;;;;;;;;;;;;;5037536;28;19909;-48
2022/03/22 04:37:36;;;;;;;;;;;;;;;;;;5036622;28;19924;-47
2022/03/22 04:40:01;;;;;;;;;;;;;;;;;;5037167;28;19910;-51
2022/03/22 04:42:26;;;;;;;;;;;;;;;;;;5037167;28;19909;-48
2022/03/22 04:44:51;;;;;;;;;;;;;;;;;;5037280;28;19913;-48
2022/03/22 04:47:16;;;;;;;;;;;;;;;;;;5036340;28;20331;-47
2022/03/22 04:49:41;;;;;;;;;;;;;;;;;;5036781;28;19909;-47
2022/03/22 04:57:34;;;;;;;;;;;;;;;;;;5035699;28;19999;-49
2022/03/22 04:59:59;;;;;;;;;;;;;;;;;;5036303;28;19937;-50
2022/03/22 05:02:24;;;;;;;;;;;;;;;;;;5036696;28;19909;-48
2022/03/22 05:04:49;;;;;;;;;;;;;;;;;;5036535;28;19909;-48
2022/03/22 05:07:14;;;;;;;;;;;;;;;;;;5035995;28;20362;-47
2022/03/22 05:09:40;;;;;;;;;;;;;;;;;;5036396;28;20268;-49
2022/03/22 05:12:05;;;;;;;;;;;;;;;;;;5036573;28;19910;-51
2022/03/22 05:14:30;;;;;;;;;;;;;;;;;;5036502;28;19916;-48
2022/03/22 05:16:58;;;;;;;;;;;;;;;;;;5035793;28;19924;-50
2022/03/22 05:19:23;;;;;;;;;;;;;;;;;;5035951;28;19955;-48
2022/03/22 05:21:48;;;;;;;;;;;;;;;;;;5036660;28;20319;-50
2022/03/22 05:24:13;;;;;;;;;;;;;;;;;;5035356;28;19910;-51
2022/03/22 05:26:39;;;;;;;;;;;;;;;;;;5035552;28;19913;-48
2022/03/22 05:29:04;;;;;;;;;;;;;;;;;;5036375;28;19944;-49
2022/03/22 05:31:29;;;;;;;;;;;;;;;;;;5036134;28;20275;-49
2022/03/22 05:33:54;;;;;;;;;;;;;;;;;;5035993;28;19909;-48
2022/03/22 05:36:20;;;;;;;;;;;;;;;;;;5034133;28;19920;-49
2022/03/22 05:38:45;;;;;;;;;;;;;;;;;;5036036;28;20299;-48
2022/03/22 05:41:10;;;;;;;;;;;;;;;;;;5035614;28;20385;-49
2022/03/22 05:43:35;;;;;;;;;;;;;;;;;;5035726;28;20364;-48
2022/03/22 05:46:02;;;;;;;;;;;;;;;;;;5035283;28;20311;-48
2022/03/22 05:48:27;;;;;;;;;;;;;;;;;;5035613;28;20346;-48
2022/03/22 05:50:52;;;;;;;;;;;;;;;;;;5035421;28;19971;-49
2022/03/22 05:53:19;;;;;;;;;;;;;;;;;;5035000;28;20280;-49
2022/03/22 05:55:44;;;;;;;;;;;;;;;;;;5034523;28;19913;-50
2022/03/22 05:58:09;;;;;;;;;;;;;;;;;;5034939;28;19917;-49
2022/03/22 06:00:34;;;;;;;;;;;;;;;;;;5035418;28;20371;-48
2022/03/22 06:02:59;;;;;;;;;;;;;;;;;;5035549;28;19952;-49
2022/03/22 06:05:25;;;;;;;;;;;;;;;;;;5035383;28;19920;-49
2022/03/22 06:07:50;;;;;;;;;;;;;;;;;;5035178;28;19913;-49
2022/03/22 06:10:15;;;;;;;;;;;;;;;;;;5035450;28;19909;-49
2022/03/22 06:12:41;;;;;;;;;;;;;;;;;;5035308;28;19932;-52
2022/03/22 06:15:16;;;;;;;;;;;;;;;;;;5034841;28;19913;-49
2022/03/22 06:17:41;;;;;;;;;;;;;;;;;;5034905;28;19916;-48
2022/03/22 06:20:06;;;;;;;;;;;;;;;;;;5035119;28;19993;-49
2022/03/22 06:22:31;;;;;;;;;;;;;;;;;;5037646;28;19944;-52
2022/03/22 06:24:56;;;;;;;;;;;;;;;;;;5037332;28;19955;-53
2022/03/22 06:27:21;;;;;;;;;;;;;;;;;;5036536;28;19913;-53
2022/03/22 06:29:46;;;;;;;;;;;;;;;;;;5037217;28;19953;-52
2022/03/22 06:32:12;;;;;;;;;;;;;;;;;;5025253;28;19920;-53
2022/03/22 06:34:37;;;;;;;;;;;;;;;;;;5037721;28;19987;-52
2022/03/22 06:37:03;;;;;;;;;;;;;;;;;;5025968;28;20335;-52
2022/03/22 06:39:28;;;;;;;;;;;;;;;;;;5017347;28;20353;-52
2022/03/22 06:41:54;;;;;;;;;;;;;;;;;;5018169;28;19913;-53
2022/03/22 06:44:19;;;;;;;;;;;;;;;;;;5025709;28;19972;-53
2022/03/22 06:46:44;;;;;;;;;;;;;;;;;;5027051;28;19921;-52
2022/03/22 06:49:09;;;;;;;;;;;;;;;;;;5021756;28;19920;-54
2022/03/22 06:51:34;;;;;;;;;;;;;;;;;;5030229;28;19921;-53
2022/03/22 06:53:59;;;;;;;;;;;;;;;;;;5029417;28;19914;-53
2022/03/22 06:56:24;;;;;;;;;;;;;;;;;;5028147;28;21211;-53
2022/03/22 06:58:50;;;;;;;;;;;;;;;;;;5016440;28;20008;-53
2022/03/22 07:01:15;;;;;;;;;;;;;;;;;;5011176;28;21687;-53
2022/03/22 07:03:40;;;;;;;;;;;;;;;;;;5016572;28;19925;-52
2022/03/22 07:06:06;;;;;;;;;;;;;;;;;;5022960;28;20391;-53
2022/03/22 07:08:31;;;;;;;;;;;;;;;;;;5007605;28;19927;-53
2022/03/22 07:13:40;;;;;;;;;;;;;;;;;;4957673;28;19928;-52
2022/03/22 07:16:06;;;;;;;;;;;;;;;;;;4931557;28;21828;-52
2022/03/22 07:18:31;;;;;;;;;;;;;;;;;;4880257;28;20023;-55
2022/03/22 07:20:56;;;;;;;;;;;;;;;;;;4862276;28;21433;-52
2022/03/22 07:23:21;;;;;;;;;;;;;;;;;;4852523;28;21699;-52
2022/03/22 07:25:47;;;;;;;;;;;;;;;;;;4826948;28;22030;-54
2022/03/22 07:28:12;;;;;;;;;;;;;;;;;;4771893;28;19936;-52
2022/03/22 07:30:37;;;;;;;;;;;;;;;;;;4785722;28;19929;-54
2022/03/22 07:33:05;;;;;;;;;;;;;;;;;;4796959;28;19936;-52
2022/03/22 07:35:30;;;;;;;;;;;;;;;;;;4870676;28;19929;-52
2022/03/22 07:37:55;;;;;;;;;;;;;;;;;;4906940;28;19972;-53
2022/03/22 07:40:20;;;;;;;;;;;;;;;;;;4907527;28;20683;-54
2022/03/22 07:42:48;;;;;;;;;;;;;;;;;;4925817;28;19922;-53
2022/03/22 07:45:13;;;;;;;;;;;;;;;;;;4932394;28;21524;-54
2022/03/22 07:47:38;;;;;;;;;;;;;;;;;;4930429;28;20062;-53
2022/03/22 07:53:06;;;;;;;;;;;;;;;;;;4938321;28;20090;-53
2022/03/22 07:55:31;;;;;;;;;;;;;;;;;;4918490;28;21418;-53
2022/03/22 07:57:57;;;;;;;;;;;;;;;;;;4910133;28;23091;-52
2022/03/22 08:00:22;;;;;;;;;;;;;;;;;;4894676;28;21938;-52
2022/03/22 08:02:47;;;;;;;;;;;;;;;;;;4865670;28;19927;-53
2022/03/22 08:05:12;;;;;;;;;;;;;;;;;;4890294;28;19928;-52
2022/03/22 08:07:38;;;;;;;;;;;;;;;;;;4864407;28;20431;-52
2022/03/22 08:10:03;;;;;;;;;;;;;;;;;;4788953;28;19922;-52
2022/03/22 08:12:28;;;;;;;;;;;;;;;;;;4759809;28;20945;-56
2022/03/22 08:14:53;;;;;;;;;;;;;;;;;;4722990;28;19956;-53
2022/03/22 08:17:18;;;;;;;;;;;;;;;;;;4654971;28;20452;-55
2022/03/22 08:19:43;;;;;;;;;;;;;;;;;;4584577;28;19925;-54
2022/03/22 08:22:09;;;;;;;;;;;;;;;;;;4423749;28;21043;-53
2022/03/22 08:24:34;;;;;;;;;;;;;;;;;;4708674;28;20043;-56
2022/03/22 08:26:59;;;;;;;;;;;;;;;;;;4740419;28;19970;-56
2022/03/22 08:29:25;;;;;;;;;;;;;;;;;;4748078;28;20003;-52
2022/03/22 08:31:52;;;;;;;;;;;;;;;;;;4646018;28;19928;-55
2022/03/22 08:34:17;;;;;;;;;;;;;;;;;;4669311;28;21772;-53
2022/03/22 08:36:42;;;;;;;;;;;;;;;;;;4657204;28;21214;-56
2022/03/22 08:39:08;;;;;;;;;;;;;;;;;;4646082;28;21466;-53
2022/03/22 08:41:34;;;;;;;;;;;;;;;;;;4675777;28;20761;-52
2022/03/22 08:43:59;;;;;;;;;;;;;;;;;;4644592;28;20592;-54
2022/03/22 08:46:24;;;;;;;;;;;;;;;;;;4655214;28;19921;-57
2022/03/22 08:48:51;;;;;;;;;;;;;;;;;;4646165;28;21014;-53
2022/03/22 08:51:16;;;;;;;;;;;;;;;;;;4678659;28;20811;-55
2022/03/22 08:53:42;;;;;;;;;;;;;;;;;;4644156;28;19921;-55
2022/03/22 08:56:07;;;;;;;;;;;;;;;;;;4618019;28;22077;-53
2022/03/22 08:58:32;;;;;;;;;;;;;;;;;;4630119;28;20000;-54
2022/03/22 09:00:58;;;;;;;;;;;;;;;;;;4621123;28;24933;-55
2022/03/22 09:03:25;;;;;;;;;;;;;;;;;;4611085;28;19956;-53
2022/03/22 09:06:09;;;;;;;;;;;;;;;;;;4595200;28;20027;-55
2022/03/22 09:08:34;;;;;;;;;;;;;;;;;;4551192;28;24116;-53
2022/03/22 09:10:59;;;;;;;;;;;;;;;;;;4650659;28;24827;-54
2022/03/22 09:13:28;;;;;;;;;;;;;;;;;;4712777;28;22364;-55
2022/03/22 09:15:53;;;;;;;;;;;;;;;;;;4686782;28;21969;-53
2022/03/22 09:18:21;;;;;;;;;;;;;;;;;;4707168;28;21346;-53
2022/03/22 09:20:46;;;;;;;;;;;;;;;;;;4747079;28;20818;-52
2022/03/22 09:23:11;;;;;;;;;;;;;;;;;;4646096;28;20939;-54
2022/03/22 09:25:36;;;;;;;;;;;;;;;;;;4644553;28;20361;-56
2022/03/22 09:28:04;;;;;;;;;;;;;;;;;;4611367;28;21902;-52
2022/03/22 09:30:29;;;;;;;;;;;;;;;;;;4420263;28;20506;-51
2022/03/22 09:32:57;;;;;;;;;;;;;;;;;;4510434;28;22750;-54
2022/03/22 09:35:22;;;;;;;;;;;;;;;;;;4551237;28;20031;-53
2022/03/22 09:37:48;;;;;;;;;;;;;;;;;;4631248;28;23805;-53
2022/03/22 09:40:13;;;;;;;;;;;;;;;;;;4612452;28;21911;-52
2022/03/22 09:42:42;;;;;;;;;;;;;;;;;;4643004;28;20797;-55
2022/03/22 09:45:10;;;;;;;;;;;;;;;;;;4636293;28;20058;-53
2022/03/22 09:47:35;;;;;;;;;;;;;;;;;;4639496;28;23640;-52
2022/03/22 09:50:01;;;;;;;;;;;;;;;;;;4629681;28;20074;-52
2022/03/22 09:52:26;;;;;;;;;;;;;;;;;;4609165;28;21586;-54
2022/03/22 09:54:51;;;;;;;;;;;;;;;;;;4638558;28;19922;-53
2022/03/22 09:57:16;;;;;;;;;;;;;;;;;;4612825;28;21740;-53
2022/03/22 09:59:41;;;;;;;;;;;;;;;;;;4611116;28;21285;-52
2022/03/22 10:02:06;;;;;;;;;;;;;;;;;;4602508;28;23492;-55
2022/03/22 10:04:32;;;;;;;;;;;;;;;;;;4602727;28;20918;-55
2022/03/22 10:07:02;;;;;;;;;;;;;;;;;;4609314;28;23044;-54
2022/03/22 10:09:27;;;;;;;;;;;;;;;;;;4639801;28;19920;-53
2022/03/22 10:11:52;;;;;;;;;;;;;;;;;;4643140;28;19928;-52
2022/03/22 10:14:19;;;;;;;;;;;;;;;;;;4627218;28;19921;-53
2022/03/22 10:16:45;;;;;;;;;;;;;;;;;;4584198;28;21995;-54
2022/03/22 10:19:10;;;;;;;;;;;;;;;;;;4530813;28;20052;-55
2022/03/22 10:21:35;;;;;;;;;;;;;;;;;;4435596;28;20047;-53
2022/03/22 10:24:02;;;;;;;;;;;;;;;;;;4367446;28;19921;-54
2022/03/22 10:26:27;;;;;;;;;;;;;;;;;;4711761;28;20067;-51
2022/03/22 10:28:52;;;;;;;;;;;;;;;;;;4698779;28;19979;-54
2022/03/22 10:31:17;;;;;;;;;;;;;;;;;;4693072;28;19928;-52
2022/03/22 10:33:42;;;;;;;;;;;;;;;;;;4696128;28;23338;-57
2022/03/22 10:36:08;;;;;;;;;;;;;;;;;;4702873;28;20048;-54
2022/03/22 10:38:33;;;;;;;;;;;;;;;;;;4689876;28;19932;-52
2022/03/22 10:40:58;;;;;;;;;;;;;;;;;;4697935;28;20425;-56
2022/03/22 10:43:23;;;;;;;;;;;;;;;;;;4699809;28;19928;-55
2022/03/22 10:45:48;;;;;;;;;;;;;;;;;;4722328;28;19951;-53
2022/03/22 10:48:13;;;;;;;;;;;;;;;;;;4705136;28;23928;-54
2022/03/22 10:50:39;;;;;;;;;;;;;;;;;;4706456;28;23481;-54
2022/03/22 10:53:04;;;;;;;;;;;;;;;;;;4709340;28;19926;-53
2022/03/22 10:55:30;;;;;;;;;;;;;;;;;;4705777;28;20007;-54
2022/03/22 10:57:55;;;;;;;;;;;;;;;;;;4692416;28;20989;-54
2022/03/22 11:00:20;;;;;;;;;;;;;;;;;;4704451;28;25572;-54
2022/03/22 11:02:45;;;;;;;;;;;;;;;;;;4708449;28;23137;-55
2022/03/22 11:05:10;;;;;;;;;;;;;;;;;;4705416;28;21249;-54
2022/03/22 11:07:37;;;;;;;;;;;;;;;;;;4717067;28;20012;-54
2022/03/22 11:10:02;;;;;;;;;;;;;;;;;;4706286;28;20051;-54
2022/03/22 11:12:28;;;;;;;;;;;;;;;;;;4712988;28;24142;-51
2022/03/22 11:14:53;;;;;;;;;;;;;;;;;;4717492;28;19925;-54
2022/03/22 11:17:19;;;;;;;;;;;;;;;;;;4720044;28;19925;-55
2022/03/22 11:19:44;;;;;;;;;;;;;;;;;;4725325;28;19925;-54
2022/03/22 11:22:09;;;;;;;;;;;;;;;;;;4745447;28;19921;-55
2022/03/22 11:24:34;;;;;;;;;;;;;;;;;;4740278;28;19925;-54
2022/03/22 11:26:59;;;;;;;;;;;;;;;;;;4747588;28;20042;-55
2022/03/22 11:29:25;;;;;;;;;;;;;;;;;;4760191;28;19921;-55
2022/03/22 11:34:34;;;;;;;;;;;;;;;;;;4753945;28;19928;-52
2022/03/22 11:36:59;;;;;;;;;;;;;;;;;;4751954;28;19921;-55
2022/03/22 11:42:15;;;;;;;;;;;;;;;;;;4719690;28;22902;-53
2022/03/22 11:42:16;;;;;;;;;;;;;;;;;;4745697;28;19929;-53
2022/03/22 11:44:41;;;;;;;;;;;;;;;;;;4761181;28;20059;-53
2022/03/22 11:47:06;;;;;;;;;;;;;;;;;;4758059;28;20021;-53
2022/03/22 11:49:31;;;;;;;;;;;;;;;;;;4766396;28;19925;-54
2022/03/22 11:51:56;;;;;;;;;;;;;;;;;;4752145;28;19933;-54
2022/03/22 11:54:21;;;;;;;;;;;;;;;;;;4751488;28;19921;-53
2022/03/22 11:56:47;;;;;;;;;;;;;;;;;;4683699;28;22215;-56
2022/03/22 11:59:12;;;;;;;;;;;;;;;;;;4622949;28;19955;-55
2022/03/22 12:01:37;;;;;;;;;;;;;;;;;;4588193;28;20345;-53
2022/03/22 12:04:04;;;;;;;;;;;;;;;;;;4591969;28;20870;-53
2022/03/22 12:06:29;;;;;;;;;;;;;;;;;;4678466;28;19929;-54
2022/03/22 12:08:54;;;;;;;;;;;;;;;;;;4715464;28;20952;-51
2022/03/22 12:11:20;;;;;;;;;;;;;;;;;;4748684;28;20674;-55
2022/03/22 12:13:45;;;;;;;;;;;;;;;;;;4750260;28;20747;-55
2022/03/22 12:16:10;;;;;;;;;;;;;;;;;;4787107;28;20592;-55
2022/03/22 12:18:35;;;;;;;;;;;;;;;;;;4759835;28;20641;-52
2022/03/22 12:21:00;;;;;;;;;;;;;;;;;;4795686;28;19921;-54
2022/03/22 12:23:26;;;;;;;;;;;;;;;;;;4798477;28;19925;-53
2022/03/22 12:25:54;;;;;;;;;;;;;;;;;;4775994;28;21380;-52
2022/03/22 12:28:19;;;;;;;;;;;;;;;;;;4735081;28;20625;-54
2022/03/22 12:30:44;;;;;;;;;;;;;;;;;;4674885;28;19974;-50
2022/03/22 12:33:18;;;;;;;;;;;;;;;;;;4509588;28;22609;-53
2022/03/22 12:35:43;;;;;;;;;;;;;;;;;;4550149;28;19986;-54
2022/03/22 12:38:08;;;;;;;;;;;;;;;;;;4593901;28;20404;-51
2022/03/22 12:40:33;;;;;;;;;;;;;;;;;;4625302;28;20700;-51
2022/03/22 12:42:59;;;;;;;;;;;;;;;;;;4635534;28;19928;-55
2022/03/22 12:45:24;;;;;;;;;;;;;;;;;;4675068;28;20051;-53
2022/03/22 12:47:49;;;;;;;;;;;;;;;;;;4702463;28;19921;-53
2022/03/22 12:50:14;;;;;;;;;;;;;;;;;;4723884;23;21850;-52
2022/03/22 12:52:40;;;;;;;;;;;;;;;;;;4687153;28;21389;-52
2022/03/22 12:55:05;;;;;;;;;;;;;;;;;;4672194;28;19928;-53
2022/03/22 12:57:30;;;;;;;;;;;;;;;;;;4662838;28;23375;-54
2022/03/22 12:59:56;;;;;;;;;;;;;;;;;;4614469;28;20578;-52
2022/03/22 13:02:21;;;;;;;;;;;;;;;;;;4645166;28;20673;-54
2022/03/22 13:04:46;;;;;;;;;;;;;;;;;;4636463;28;19921;-55
2022/03/22 13:07:11;;;;;;;;;;;;;;;;;;4646816;28;20719;-51
2022/03/22 13:12:20;;;;;;;;;;;;;;;;;;4647507;28;20681;-55
2022/03/22 13:17:29;;;;;;;;;;;;;;;;;;4611047;28;20692;-51
2022/03/22 13:19:54;;;;;;;;;;;;;;;;;;4558659;28;20939;-51
2022/03/22 13:22:26;;;;;;;;;;;;;;;;;;4346486;28;23321;-53
2022/03/22 13:24:51;;;;;;;;;;;;;;;;;;4433492;28;19922;-53
2022/03/22 13:27:17;;;;;;;;;;;;;;;;;;4531858;28;20610;-55
2022/03/22 13:29:43;;;;;;;;;;;;;;;;;;4631914;28;26842;-54
2022/03/22 13:32:08;;;;;;;;;;;;;;;;;;4665111;28;20747;-54
2022/03/22 13:34:33;;;;;;;;;;;;;;;;;;4691263;28;21354;-55
2022/03/22 13:36:58;;;;;;;;;;;;;;;;;;4694045;28;20644;-56
2022/03/22 13:39:24;;;;;;;;;;;;;;;;;;4730132;28;20695;-54
2022/03/22 13:41:49;;;;;;;;;;;;;;;;;;4729335;28;19925;-53
2022/03/22 13:44:14;;;;;;;;;;;;;;;;;;4721805;28;20631;-52
2022/03/22 13:46:39;;;;;;;;;;;;;;;;;;4763016;28;19932;-51
2022/03/22 13:49:04;;;;;;;;;;;;;;;;;;4774028;28;20948;-53
2022/03/22 13:51:30;;;;;;;;;;;;;;;;;;4764673;28;19932;-54
2022/03/22 13:53:57;;;;;;;;;;;;;;;;;;4740826;28;22754;-54
2022/03/22 13:56:22;;;;;;;;;;;;;;;;;;4779865;28;19925;-53
2022/03/22 13:58:47;;;;;;;;;;;;;;;;;;4735577;28;21994;-55
2022/03/22 14:01:13;;;;;;;;;;;;;;;;;;4743562;28;20459;-53
2022/03/22 14:03:38;;;;;;;;;;;;;;;;;;4736308;28;20471;-53
2022/03/22 14:06:04;;;;;;;;;;;;;;;;;;4759461;28;19921;-51
2022/03/22 14:08:29;;;;;;;;;;;;;;;;;;4685077;28;20631;-53
2022/03/22 14:10:54;;;;;;;;;;;;;;;;;;4606964;28;25596;-51
2022/03/22 14:13:22;;;;;;;;;;;;;;;;;;4598400;28;21894;-55
2022/03/22 14:15:47;;;;;;;;;;;;;;;;;;4668081;28;22185;-53
2022/03/22 14:18:12;;;;;;;;;;;;;;;;;;4736508;28;22328;-52
2022/03/22 14:20:37;;;;;;;;;;;;;;;;;;4798811;28;22837;-55
2022/03/22 14:23:02;;;;;;;;;;;;;;;;;;4834890;28;21525;-52
2022/03/22 14:25:27;;;;;;;;;;;;;;;;;;4871601;28;21660;-54
2022/03/22 14:27:56;;;;;;;;;;;;;;;;;;4896575;28;20119;-53
2022/03/22 14:30:21;;;;;;;;;;;;;;;;;;4909737;28;19922;-56
2022/03/22 14:32:46;;;;;;;;;;;;;;;;;;4911287;28;19929;-53
2022/03/22 14:37:55;;;;;;;;;;;;;;;;;;4921959;28;19992;-54
2022/03/22 14:40:20;;;;;;;;;;;;;;;;;;4933188;28;21747;-55
2022/03/22 14:42:46;;;;;;;;;;;;;;;;;;4930388;28;20653;-55
2022/03/22 14:45:13;;;;;;;;;;;;;;;;;;4937312;28;20055;-52
2022/03/22 14:47:38;;;;;;;;;;;;;;;;;;4918956;28;21698;-54
2022/03/22 14:50:03;;;;;;;;;;;;;;;;;;4930987;28;19922;-55
2022/03/22 14:55:12;;;;;;;;;;;;;;;;;;4936745;28;20000;-53
2022/03/22 15:00:21;;;;;;;;;;;;;;;;;;4837095;28;19928;-53
2022/03/22 15:02:48;;;;;;;;;;;;;;;;;;4860550;28;20560;-54
2022/03/22 15:05:33;;;;;;;;;;;;;;;;;;4868494;28;19922;-53
2022/03/22 15:07:59;;;;;;;;;;;;;;;;;;4950681;28;20004;-56
2022/03/22 15:10:24;;;;;;;;;;;;;;;;;;4958966;28;20308;-53
2022/03/22 15:12:50;;;;;;;;;;;;;;;;;;4956691;28;19928;-53
2022/03/22 15:15:15;;;;;;;;;;;;;;;;;;4971258;28;19921;-54
2022/03/22 15:17:40;;;;;;;;;;;;;;;;;;4975182;28;19972;-55
2022/03/22 15:20:06;;;;;;;;;;;;;;;;;;4982556;28;20024;-52
2022/03/22 15:22:31;;;;;;;;;;;;;;;;;;4982036;28;19928;-53
2022/03/22 15:24:56;;;;;;;;;;;;;;;;;;4983334;28;19917;-51
2022/03/22 15:27:23;;;;;;;;;;;;;;;;;;4983436;28;19928;-52
2022/03/22 15:29:48;;;;;;;;;;;;;;;;;;4969149;28;19933;-54
2022/03/22 15:32:14;;;;;;;;;;;;;;;;;;4977464;28;21066;-55
2022/03/22 15:34:39;;;;;;;;;;;;;;;;;;4963156;28;19921;-55
2022/03/22 15:37:04;;;;;;;;;;;;;;;;;;4965006;28;19963;-52
2022/03/22 15:39:29;;;;;;;;;;;;;;;;;;4977761;28;19922;-53
2022/03/22 15:41:54;;;;;;;;;;;;;;;;;;4975745;28;19921;-57
2022/03/22 15:44:19;;;;;;;;;;;;;;;;;;4976440;28;20341;-56
2022/03/22 15:46:44;;;;;;;;;;;;;;;;;;4978150;28;20732;-55
2022/03/22 15:49:09;;;;;;;;;;;;;;;;;;4979778;28;20036;-57
2022/03/22 15:51:35;;;;;;;;;;;;;;;;;;4963298;28;19925;-53
2022/03/22 15:54:00;;;;;;;;;;;;;;;;;;4974937;28;19921;-55
2022/03/22 15:56:25;;;;;;;;;;;;;;;;;;4968848;28;19921;-54
2022/03/22 15:58:51;;;;;;;;;;;;;;;;;;4975562;28;19929;-52
2022/03/22 16:01:16;;;;;;;;;;;;;;;;;;4973677;28;19928;-53
2022/03/22 16:03:41;;;;;;;;;;;;;;;;;;4989543;28;20647;-53
2022/03/22 16:06:06;;;;;;;;;;;;;;;;;;4990682;28;19914;-52
2022/03/22 16:08:31;;;;;;;;;;;;;;;;;;5007642;28;19920;-52
2022/03/22 16:10:56;;;;;;;;;;;;;;;;;;5017366;28;19960;-53
2022/03/22 16:13:21;;;;;;;;;;;;;;;;;;5014032;28;19964;-52
2022/03/22 16:15:49;;;;;;;;;;;;;;;;;;5016747;28;20399;-54
2022/03/22 16:18:16;;;;;;;;;;;;;;;;;;5016030;28;19924;-54
2022/03/22 16:20:41;;;;;;;;;;;;;;;;;;5017688;28;20335;-54
2022/03/22 16:23:06;;;;;;;;;;;;;;;;;;5018231;28;19945;-56
2022/03/22 16:25:31;;;;;;;;;;;;;;;;;;5016628;28;19972;-53
2022/03/22 16:27:57;;;;;;;;;;;;;;;;;;5008842;28;20063;-53
2022/03/22 16:30:22;;;;;;;;;;;;;;;;;;5014074;28;19918;-53
2022/03/22 16:38:15;;;;;;;;;;;;;;;;;;5011653;28;20426;-56
2022/03/22 16:40:42;;;;;;;;;;;;;;;;;;5015032;28;19918;-53
2022/03/22 16:43:07;;;;;;;;;;;;;;;;;;5011818;28;19917;-55
2022/03/22 16:45:38;;;;;;;;;;;;;;;;;;5014156;28;19921;-54
2022/03/22 16:48:04;;;;;;;;;;;;;;;;;;5014960;28;19913;-54
2022/03/22 16:50:31;;;;;;;;;;;;;;;;;;5016333;28;19977;-53
2022/03/22 16:52:56;;;;;;;;;;;;;;;;;;5014221;28;20384;-55
2022/03/22 16:55:24;;;;;;;;;;;;;;;;;;5013296;28;19913;-52
2022/03/22 16:57:50;;;;;;;;;;;;;;;;;;5016438;28;19976;-54
2022/03/22 17:00:15;;;;;;;;;;;;;;;;;;5013277;28;19913;-53
2022/03/22 17:02:40;;;;;;;;;;;;;;;;;;5012408;28;19913;-53
2022/03/22 17:05:07;;;;;;;;;;;;;;;;;;5003966;28;19914;-54
2022/03/22 17:07:36;;;;;;;;;;;;;;;;;;5012672;28;19960;-49
2022/03/22 17:10:01;;;;;;;;;;;;;;;;;;5013998;28;20339;-49
2022/03/22 17:12:26;;;;;;;;;;;;;;;;;;5015702;28;19917;-52
2022/03/22 17:14:51;;;;;;;;;;;;;;;;;;5035554;28;19909;-51
2022/03/22 17:17:16;;;;;;;;;;;;;;;;;;5027435;28;20011;-49
2022/03/22 17:19:41;;;;;;;;;;;;;;;;;;5022112;28;19975;-49
2022/03/22 17:22:08;;;;;;;;;;;;;;;;;;5014673;28;20051;-50
2022/03/22 17:24:33;;;;;;;;;;;;;;;;;;5007895;28;19920;-48